createdAt,value
2023-05-01T00:01:00.226Z,100.00
2023-05-01T00:04:03.538Z,100.00
2023-05-01T00:07:06.485Z,100.00
2023-05-01T00:10:09.449Z,100.00
2023-05-01T00:13:12.187Z,100.00
2023-05-01T00:16:17.053Z,100.00
2023-05-01T00:19:20.223Z,100.00
2023-05-01T00:22:23.166Z,100.00
2023-05-01T00:25:25.863Z,100.00
2023-05-01T00:28:29.261Z,100.00
2023-05-01T00:31:31.921Z,100.00
2023-05-01T00:34:35.359Z,100.00
2023-05-01T00:37:38.530Z,100.00
2023-05-01T00:40:45.551Z,100.00
2023-05-01T00:43:48.411Z,100.00
2023-05-01T00:46:51.641Z,100.00
2023-05-01T00:49:55.982Z,100.00
2023-05-01T00:52:59.443Z,100.00
2023-05-01T00:56:02.201Z,100.00
2023-05-01T00:59:05.653Z,98.40
2023-05-01T01:02:08.940Z,98.46
2023-05-01T01:05:11.971Z,98.31
2023-05-01T01:08:31.315Z,98.21
2023-05-01T01:11:47.344Z,98.12
2023-05-01T01:15:06.242Z,97.41
2023-05-01T01:18:18.098Z,98.56
2023-05-01T01:21:38.432Z,100.00
2023-05-01T01:24:41.267Z,100.00
2023-05-01T01:28:31.673Z,100.00
2023-05-01T01:31:52.920Z,100.00
2023-05-01T01:35:02.585Z,100.00
2023-05-01T01:38:15.249Z,100.00
2023-05-01T01:41:24.267Z,100.00
2023-05-01T01:44:38.956Z,100.00
2023-05-01T01:47:43.459Z,100.00
2023-05-01T01:50:47.658Z,100.00
2023-05-01T01:53:54.075Z,100.00
2023-05-01T01:56:58.431Z,100.00
2023-05-01T02:00:01.227Z,100.00
2023-05-01T02:03:06.602Z,100.00
2023-05-01T02:06:12.122Z,100.00
2023-05-01T02:09:19.322Z,100.00
2023-05-01T02:12:24.848Z,100.00
2023-05-01T02:15:30.087Z,100.00
2023-05-01T02:18:34.632Z,100.00
2023-05-01T02:21:39.174Z,100.00
2023-05-01T02:24:43.765Z,100.00
2023-05-01T02:27:57.861Z,100.00
2023-05-01T02:31:01.234Z,100.00
2023-05-01T02:34:03.926Z,100.00
2023-05-01T02:37:11.178Z,100.00
2023-05-01T02:40:15.235Z,100.00
2023-05-01T02:43:21.011Z,100.00
2023-05-01T02:46:27.353Z,100.00
2023-05-01T02:49:32.512Z,100.00
2023-05-01T02:52:37.452Z,100.00
2023-05-01T02:55:45.448Z,100.00
2023-05-01T02:58:49.467Z,100.00
2023-05-01T03:01:52.666Z,100.00
2023-05-01T03:04:55.289Z,100.00
2023-05-01T03:07:58.308Z,100.00
2023-05-01T03:11:05.173Z,100.00
2023-05-01T03:14:08.775Z,100.00
2023-05-01T03:17:11.461Z,100.00
2023-05-01T03:20:16.120Z,100.00
2023-05-01T03:23:18.815Z,100.00
2023-05-01T03:26:21.780Z,100.00
2023-05-01T03:29:26.124Z,100.00
2023-05-01T03:32:29.678Z,100.00
2023-05-01T03:35:32.666Z,100.00
2023-05-01T03:38:35.750Z,100.00
2023-05-01T03:41:47.642Z,100.00
2023-05-01T03:44:51.370Z,100.00
2023-05-01T03:47:54.689Z,100.00
2023-05-01T03:50:58.242Z,100.00
2023-05-01T03:54:01.104Z,100.00
2023-05-01T03:57:07.365Z,100.00
2023-05-01T04:00:11.849Z,100.00
2023-05-01T04:03:18.011Z,100.00
2023-05-01T04:06:22.923Z,100.00
2023-05-01T04:09:26.217Z,100.00
2023-05-01T04:12:29.163Z,100.00
2023-05-01T04:15:32.524Z,98.58
2023-05-01T04:18:35.575Z,99.07
2023-05-01T04:21:38.354Z,100.00
2023-05-01T04:24:41.709Z,99.54
2023-05-01T04:27:44.466Z,98.56
2023-05-01T04:30:48.430Z,98.82
2023-05-01T04:33:51.755Z,95.03
2023-05-01T04:36:57.232Z,94.13
2023-05-01T04:40:00.927Z,92.16
2023-05-01T04:43:04.052Z,91.31
2023-05-01T04:46:07.572Z,90.44
2023-05-01T04:49:10.888Z,89.83
2023-05-01T04:52:13.587Z,87.31
2023-05-01T04:55:17.471Z,85.12
2023-05-01T04:58:21.491Z,79.98
2023-05-01T05:01:25.423Z,77.70
2023-05-01T05:04:29.199Z,75.20
2023-05-01T05:07:32.488Z,75.05
2023-05-01T05:10:38.560Z,71.52
2023-05-01T05:13:42.608Z,71.46
2023-05-01T05:16:45.529Z,65.27
2023-05-01T05:19:48.439Z,53.08
2023-05-01T05:22:51.609Z,49.20
2023-05-01T05:25:55.921Z,45.76
2023-05-01T05:28:58.601Z,42.31
2023-05-01T05:32:02.343Z,40.05
2023-05-01T05:35:06.592Z,41.27
2023-05-01T05:38:09.619Z,41.08
2023-05-01T05:41:12.656Z,42.07
2023-05-01T05:44:15.655Z,44.72
2023-05-01T05:47:18.541Z,44.45
2023-05-01T05:50:21.594Z,42.70
2023-05-01T05:53:25.971Z,41.33
2023-05-01T05:56:29.453Z,39.40
2023-05-01T05:59:32.574Z,37.33
2023-05-01T06:02:35.874Z,35.67
2023-05-01T06:05:39.050Z,34.80
2023-05-01T06:08:41.791Z,34.39
2023-05-01T06:11:46.301Z,33.36
2023-05-01T06:14:49.480Z,34.70
2023-05-01T06:17:52.727Z,33.04
2023-05-01T06:20:55.567Z,35.22
2023-05-01T06:23:58.979Z,34.72
2023-05-01T06:27:02.331Z,35.68
2023-05-01T06:30:05.902Z,33.77
2023-05-01T06:33:10.430Z,31.33
2023-05-01T06:36:13.810Z,30.52
2023-05-01T06:39:16.461Z,31.04
2023-05-01T06:42:21.569Z,32.06
2023-05-01T06:45:24.180Z,33.03
2023-05-01T06:48:27.275Z,30.31
2023-05-01T06:51:31.560Z,31.20
2023-05-01T06:54:34.486Z,29.19
2023-05-01T06:57:37.229Z,28.03
2023-05-01T07:00:40.267Z,29.12
2023-05-01T07:03:43.220Z,28.82
2023-05-01T07:06:46.371Z,28.92
2023-05-01T07:09:49.236Z,26.43
2023-05-01T07:12:52.269Z,25.62
2023-05-01T07:15:55.216Z,27.00
2023-05-01T07:18:58.292Z,25.57
2023-05-01T07:22:01.110Z,26.08
2023-05-01T07:25:04.341Z,27.54
2023-05-01T07:28:08.238Z,29.50
2023-05-01T07:31:11.254Z,28.21
2023-05-01T07:34:14.173Z,29.79
2023-05-01T07:37:18.734Z,28.07
2023-05-01T07:40:21.672Z,25.89
2023-05-01T07:43:24.644Z,25.88
2023-05-01T07:46:27.492Z,26.71
2023-05-01T07:49:35.725Z,26.20
2023-05-01T07:52:39.659Z,28.32
2023-05-01T07:55:42.626Z,30.79
2023-05-01T07:58:45.428Z,32.28
2023-05-01T08:01:48.685Z,32.34
2023-05-01T08:04:52.044Z,29.83
2023-05-01T08:07:54.785Z,34.85
2023-05-01T08:10:57.815Z,31.62
2023-05-01T08:14:01.052Z,30.03
2023-05-01T08:17:04.034Z,27.82
2023-05-01T08:20:07.322Z,27.95
2023-05-01T08:23:10.248Z,28.49
2023-05-01T08:26:12.931Z,27.08
2023-05-01T08:29:16.591Z,26.79
2023-05-01T08:32:19.322Z,26.74
2023-05-01T08:35:22.508Z,26.10
2023-05-01T08:38:25.258Z,30.43
2023-05-01T08:41:29.240Z,30.72
2023-05-01T08:44:33.427Z,33.33
2023-05-01T08:47:39.154Z,36.03
2023-05-01T08:50:46.639Z,34.75
2023-05-01T08:53:52.288Z,34.52
2023-05-01T08:56:56.271Z,33.28
2023-05-01T09:00:00.099Z,28.22
2023-05-01T09:03:05.517Z,31.27
2023-05-01T09:06:10.278Z,31.29
2023-05-01T09:09:13.149Z,33.48
2023-05-01T09:12:26.374Z,34.26
2023-05-01T09:15:32.799Z,34.59
2023-05-01T09:18:36.122Z,35.52
2023-05-01T09:21:40.709Z,34.91
2023-05-01T09:24:44.080Z,35.01
2023-05-01T09:27:46.903Z,33.78
2023-05-01T09:30:49.862Z,35.38
2023-05-01T09:33:58.256Z,34.87
2023-05-01T09:37:01.263Z,32.69
2023-05-01T09:40:09.379Z,35.17
2023-05-01T09:43:12.528Z,34.94
2023-05-01T09:46:15.524Z,35.16
2023-05-01T09:49:18.603Z,33.35
2023-05-01T09:52:21.368Z,34.84
2023-05-01T09:55:25.867Z,35.25
2023-05-01T09:58:29.497Z,36.02
2023-05-01T10:01:41.342Z,35.51
2023-05-01T10:04:45.243Z,35.56
2023-05-01T10:07:59.759Z,35.73
2023-05-01T10:11:05.256Z,35.77
2023-05-01T10:14:10.053Z,36.47
2023-05-01T10:17:21.663Z,37.12
2023-05-01T10:20:25.108Z,35.33
2023-05-01T10:23:28.343Z,36.37
2023-05-01T10:26:33.003Z,37.40
2023-05-01T10:29:42.327Z,35.88
2023-05-01T10:32:46.481Z,36.17
2023-05-01T10:35:57.573Z,36.29
2023-05-01T10:39:00.605Z,36.05
2023-05-01T10:42:17.832Z,37.57
2023-05-01T10:45:30.261Z,35.09
2023-05-01T10:48:39.425Z,35.52
2023-05-01T10:52:01.058Z,35.73
2023-05-01T10:55:33.124Z,34.90
2023-05-01T10:58:38.691Z,34.83
2023-05-01T11:01:47.665Z,38.63
2023-05-01T11:04:51.646Z,36.32
2023-05-01T11:08:30.865Z,34.85
2023-05-01T11:11:33.959Z,34.60
2023-05-01T11:15:04.604Z,34.30
2023-05-01T11:18:07.613Z,35.37
2023-05-01T11:21:10.783Z,36.21
2023-05-01T11:24:14.112Z,36.23
2023-05-01T11:27:17.203Z,35.09
2023-05-01T11:30:19.965Z,35.70
2023-05-01T11:33:25.841Z,36.00
2023-05-01T11:36:30.254Z,35.05
2023-05-01T11:39:33.328Z,35.76
2023-05-01T11:42:35.975Z,37.26
2023-05-01T11:45:38.925Z,36.77
2023-05-01T11:48:41.820Z,35.71
2023-05-01T11:51:44.784Z,35.22
2023-05-01T11:54:48.528Z,35.87
2023-05-01T11:57:53.455Z,35.74
2023-05-01T12:00:56.123Z,37.84
2023-05-01T12:03:59.675Z,37.99
2023-05-01T12:07:02.345Z,37.97
2023-05-01T12:10:05.851Z,37.12
2023-05-01T12:13:10.359Z,39.27
2023-05-01T12:16:13.524Z,37.79
2023-05-01T12:19:16.577Z,38.61
2023-05-01T12:22:19.859Z,38.29
2023-05-01T12:25:22.695Z,38.64
2023-05-01T12:28:27.637Z,39.36
2023-05-01T12:31:32.045Z,40.15
2023-05-01T12:34:35.148Z,40.23
2023-05-01T12:37:38.174Z,40.12
2023-05-01T12:40:56.942Z,40.12
2023-05-01T12:43:59.792Z,40.02
2023-05-01T12:47:05.236Z,40.51
2023-05-01T12:50:08.887Z,42.47
2023-05-01T12:53:12.791Z,40.86
2023-05-01T12:56:23.813Z,40.90
2023-05-01T12:59:27.680Z,41.31
2023-05-01T13:02:32.604Z,40.92
2023-05-01T13:05:35.746Z,40.48
2023-05-01T13:08:40.219Z,41.02
2023-05-01T13:11:43.569Z,41.27
2023-05-01T13:14:46.614Z,41.87
2023-05-01T13:17:49.835Z,41.55
2023-05-01T13:20:52.523Z,40.50
2023-05-01T13:24:01.017Z,41.62
2023-05-01T13:27:05.148Z,41.21
2023-05-01T13:30:12.438Z,41.17
2023-05-01T13:33:15.157Z,41.67
2023-05-01T13:36:26.068Z,41.65
2023-05-01T13:39:30.146Z,41.73
2023-05-01T13:42:33.146Z,41.80
2023-05-01T13:45:36.141Z,43.49
2023-05-01T13:48:40.955Z,41.79
2023-05-01T13:51:46.623Z,42.18
2023-05-01T13:54:52.790Z,41.29
2023-05-01T13:57:55.423Z,41.45
2023-05-01T14:00:58.710Z,42.20
2023-05-01T14:04:04.330Z,41.55
2023-05-01T14:07:07.154Z,42.36
2023-05-01T14:10:11.212Z,43.96
2023-05-01T14:13:17.790Z,42.02
2023-05-01T14:16:25.926Z,41.86
2023-05-01T14:19:28.799Z,41.45
2023-05-01T14:22:44.025Z,41.51
2023-05-01T14:25:49.059Z,42.42
2023-05-01T14:28:52.462Z,41.72
2023-05-01T14:31:55.904Z,43.37
2023-05-01T14:34:59.795Z,42.94
2023-05-01T14:38:12.863Z,42.24
2023-05-01T14:41:18.700Z,43.00
2023-05-01T14:44:25.429Z,43.34
2023-05-01T14:47:28.378Z,42.97
2023-05-01T14:50:31.439Z,42.00
2023-05-01T14:53:34.523Z,43.33
2023-05-01T14:56:37.612Z,44.05
2023-05-01T14:59:41.062Z,44.40
2023-05-01T15:02:44.037Z,43.79
2023-05-01T15:05:47.164Z,44.44
2023-05-01T15:08:50.312Z,45.97
2023-05-01T15:11:53.253Z,45.89
2023-05-01T15:14:56.114Z,47.05
2023-05-01T15:17:59.421Z,48.11
2023-05-01T15:21:02.772Z,47.93
2023-05-01T15:24:05.928Z,47.61
2023-05-01T15:27:09.006Z,47.42
2023-05-01T15:30:12.406Z,48.22
2023-05-01T15:33:18.759Z,48.16
2023-05-01T15:36:22.261Z,48.76
2023-05-01T15:39:25.305Z,49.01
2023-05-01T15:42:28.348Z,48.52
2023-05-01T15:45:31.614Z,48.33
2023-05-01T15:48:34.747Z,48.91
2023-05-01T15:51:37.548Z,49.93
2023-05-01T15:54:40.747Z,50.10
2023-05-01T15:57:47.148Z,50.82
2023-05-01T16:00:50.478Z,51.56
2023-05-01T16:03:53.707Z,51.11
2023-05-01T16:06:56.402Z,51.73
2023-05-01T16:10:00.142Z,51.15
2023-05-01T16:13:06.453Z,51.58
2023-05-01T16:16:14.644Z,53.17
2023-05-01T16:19:17.909Z,52.09
2023-05-01T16:22:21.410Z,50.37
2023-05-01T16:25:24.084Z,48.74
2023-05-01T16:28:27.474Z,49.35
2023-05-01T16:31:37.910Z,49.76
2023-05-01T16:34:41.213Z,50.46
2023-05-01T16:37:44.083Z,49.40
2023-05-01T16:40:50.588Z,49.39
2023-05-01T16:43:53.348Z,49.83
2023-05-01T16:46:58.621Z,49.78
2023-05-01T16:50:01.577Z,49.90
2023-05-01T16:53:04.993Z,50.62
2023-05-01T16:56:16.020Z,51.34
2023-05-01T16:59:19.087Z,51.96
2023-05-01T17:02:21.978Z,52.34
2023-05-01T17:05:25.736Z,52.93
2023-05-01T17:08:28.428Z,54.00
2023-05-01T17:11:32.060Z,53.57
2023-05-01T17:14:34.886Z,53.54
2023-05-01T17:17:38.189Z,54.01
2023-05-01T17:20:40.960Z,55.18
2023-05-01T17:23:44.672Z,56.35
2023-05-01T17:26:47.381Z,58.33
2023-05-01T17:29:50.466Z,60.52
2023-05-01T17:32:53.319Z,62.05
2023-05-01T17:35:59.629Z,65.04
2023-05-01T17:39:02.399Z,67.40
2023-05-01T17:42:05.413Z,66.37
2023-05-01T17:45:10.347Z,69.88
2023-05-01T17:48:13.412Z,72.52
2023-05-01T17:51:16.109Z,75.67
2023-05-01T17:54:19.561Z,78.78
2023-05-01T17:57:22.263Z,80.69
2023-05-01T18:00:27.615Z,81.64
2023-05-01T18:03:33.790Z,84.01
2023-05-01T18:06:36.990Z,84.92
2023-05-01T18:09:40.169Z,86.76
2023-05-01T18:12:44.672Z,88.86
2023-05-01T18:15:49.387Z,90.04
2023-05-01T18:18:53.855Z,90.90
2023-05-01T18:21:57.030Z,91.65
2023-05-01T18:24:59.754Z,92.70
2023-05-01T18:28:02.817Z,89.96
2023-05-01T18:31:05.565Z,92.55
2023-05-01T18:34:10.274Z,93.65
2023-05-01T18:37:12.983Z,93.31
2023-05-01T18:40:16.528Z,94.80
2023-05-01T18:43:19.248Z,93.39
2023-05-01T18:46:22.339Z,91.04
2023-05-01T18:49:25.387Z,92.06
2023-05-01T18:52:30.068Z,92.89
2023-05-01T18:55:33.211Z,94.27
2023-05-01T18:58:36.571Z,94.27
2023-05-01T19:01:39.585Z,95.26
2023-05-01T19:04:55.859Z,95.66
2023-05-01T19:08:01.924Z,96.40
2023-05-01T19:11:05.719Z,96.64
2023-05-01T19:14:16.521Z,96.90
2023-05-01T19:17:23.144Z,97.38
2023-05-01T19:20:26.489Z,97.00
2023-05-01T19:23:34.766Z,95.73
2023-05-01T19:26:37.431Z,94.39
2023-05-01T19:29:40.625Z,91.90
2023-05-01T19:32:44.477Z,90.49
2023-05-01T19:35:47.504Z,89.98
2023-05-01T19:38:50.149Z,91.55
2023-05-01T19:41:53.982Z,92.28
2023-05-01T19:44:57.240Z,90.42
2023-05-01T19:48:00.321Z,91.16
2023-05-01T19:51:03.044Z,90.41
2023-05-01T19:54:06.034Z,92.28
2023-05-01T19:57:08.759Z,91.88
2023-05-01T20:00:12.366Z,94.24
2023-05-01T20:03:16.818Z,94.53
2023-05-01T20:06:20.026Z,93.45
2023-05-01T20:09:23.196Z,90.48
2023-05-01T20:12:27.058Z,91.02
2023-05-01T20:15:30.372Z,91.88
2023-05-01T20:18:33.178Z,93.82
2023-05-01T20:21:36.957Z,95.11
2023-05-01T20:24:39.910Z,95.31
2023-05-01T20:27:43.153Z,95.74
2023-05-01T20:30:47.501Z,96.79
2023-05-01T20:33:50.681Z,97.35
2023-05-01T20:36:53.287Z,96.70
2023-05-01T20:39:56.559Z,97.91
2023-05-01T20:43:00.746Z,97.60
2023-05-01T20:46:03.845Z,96.36
2023-05-01T20:49:10.016Z,96.35
2023-05-01T20:52:13.281Z,94.12
2023-05-01T20:55:15.944Z,94.04
2023-05-01T20:58:18.896Z,93.32
2023-05-01T21:01:21.596Z,97.34
2023-05-01T21:04:24.973Z,97.97
2023-05-01T21:07:29.613Z,99.45
2023-05-01T21:10:32.826Z,98.01
2023-05-01T21:13:35.619Z,98.98
2023-05-01T21:16:39.190Z,99.87
2023-05-01T21:19:44.120Z,100.00
2023-05-01T21:22:48.605Z,100.00
2023-05-01T21:25:54.230Z,100.00
2023-05-01T21:28:58.564Z,100.00
2023-05-01T21:32:04.312Z,100.00
2023-05-01T21:35:09.946Z,100.00
2023-05-01T21:38:13.233Z,100.00
2023-05-01T21:41:16.457Z,100.00
2023-05-01T21:44:19.244Z,100.00
2023-05-01T21:47:22.396Z,100.00
2023-05-01T21:50:25.348Z,100.00
2023-05-01T21:53:29.916Z,100.00
2023-05-01T21:56:33.024Z,100.00
2023-05-01T21:59:38.136Z,100.00
2023-05-01T22:02:46.284Z,100.00
2023-05-01T22:05:49.837Z,100.00
2023-05-01T22:08:53.092Z,100.00
2023-05-01T22:11:58.681Z,100.00
2023-05-01T22:15:01.551Z,100.00
2023-05-01T22:18:04.827Z,100.00
2023-05-01T22:21:07.654Z,100.00
2023-05-01T22:24:11.016Z,100.00
2023-05-01T22:27:13.675Z,100.00
2023-05-01T22:30:16.670Z,100.00
2023-05-01T22:33:19.382Z,100.00
2023-05-01T22:36:22.316Z,100.00
2023-05-01T22:39:24.886Z,100.00
2023-05-01T22:42:28.014Z,100.00
2023-05-01T22:45:30.647Z,100.00
2023-05-01T22:48:33.659Z,100.00
2023-05-01T22:51:37.313Z,99.12
2023-05-01T22:54:40.351Z,97.08
2023-05-01T22:57:43.002Z,97.22
2023-05-01T23:00:46.061Z,99.92
2023-05-01T23:03:50.570Z,96.71
2023-05-01T23:06:53.660Z,95.25
2023-05-01T23:09:56.606Z,92.65
2023-05-01T23:12:59.623Z,92.02
2023-05-01T23:16:02.418Z,89.90
2023-05-01T23:19:06.291Z,88.59
2023-05-01T23:22:10.906Z,88.08
2023-05-01T23:25:14.776Z,86.83
2023-05-01T23:28:22.605Z,87.84
2023-05-01T23:31:27.091Z,86.43
2023-05-01T23:34:30.443Z,86.77
2023-05-01T23:37:33.517Z,87.00
2023-05-01T23:40:37.206Z,86.90
2023-05-01T23:43:40.400Z,84.89
2023-05-01T23:46:43.280Z,83.90
2023-05-01T23:49:46.836Z,83.29
2023-05-01T23:52:50.084Z,83.79
2023-05-01T23:55:53.665Z,82.81
2023-05-01T23:58:56.316Z,84.11
